Aérodrome :
LOGIN :

S'inscrire | Disclaimer

   EN    FR    IT 

 










Légende :    VFR   VFR Marginal   IFR   IFR Intensif   IFR Très Intensif
Visi : 
Plafond : 
>= 8 km
>= 3000ft
5 à 8 km
1000 à 3000 ft
1500m à 5 km
500 à 1000 ft
800 à 1500m
200 à 500 ft
< 800m
< 200 ft
Symboles :   Orages  Brouillard  Fortes neiges  Fortes précipitations  Vent > 20 kt
SIGMETs :   Divers  Orages  Givrage  Turbulence  Onde Orograph.  Cendres Volcan.







- Altitude de l'aérodrome : 2001 ft
- Code IATA : MAD


LEMD - Madrid

DERNIER METAR :
  • 130430Z 34003KT 9999 FEW028 08/08 Q1022 NOSIG

METARs EXPIRÉS :
  • 130400Z 34002KT 9999 FEW060 08/08 Q1022 NOSIG
  • 130330Z 36002KT 9999 FEW060 08/08 Q1022 NOSIG
  • 130300Z 00000KT 9999 FEW060 08/08 Q1022 NOSIG
  • 130230Z VRB01KT 9999 FEW060 09/09 Q1022 NOSIG

TAF TAF LEMD
Valide du 13 à 00h jusqu'au 14 à 06h UTC


122300Z 1300/1406 34006KT 9999 FEW025 BKN045 TX19/1315Z TN08/1306Z
BECMG 1303/1306 CAVOK
TEMPO 1309/1315 04006KT
Pas de NOTAMs connus pour ce terrain.
1 SIGMET publié pour la FIR Madrid (LECM) :
 
Turbulence forte
LECM SIGMET 1 VALID 130300/130600 LEVA
LECM MADRID UIR SEV TURB FCST WI N41 W00652 - N4417 W00408 - N4351 W00241 - N3709 W00721 - N4058 W00653 - N41 W00652 FL270/330 STNR WKN=



MET'MAP, la Météo Aéronautique d'un coup d'oeil ! - Copyright ORBIFLY Décembre 2007 - Disclaimer

ORBIFLY MET'MAP TEAM :

Programmation & Développement : Alexandra Zaïnal
Conception & Développement : Baudouin d'Aumeries
Co-Programmation & Développement : Marc-Olivier Méhu
Soutien technique & logistique : Manuel Goepfert

Contact : metmap@orbifly.com




SOURCES & CREDITS :

   NOAA